createdAt,value
2022-08-22T00:02:23.687Z,52.19
2022-08-22T00:02:43.552Z,46.09
2022-08-22T00:03:15.512Z,49.29
2022-08-22T00:05:02.934Z,51.77
2022-08-22T00:07:42.019Z,51.96
2022-08-22T00:10:21.031Z,51.96
2022-08-22T00:13:03.859Z,52.05
2022-08-22T00:15:44.307Z,52.01
2022-08-22T00:18:18.617Z,51.82
2022-08-22T00:20:52.591Z,52.28
2022-08-22T00:23:28.354Z,52.44
2022-08-22T00:26:02.230Z,52.46
2022-08-22T00:28:39.327Z,52.51
2022-08-22T00:31:13.462Z,52.42
2022-08-22T00:33:47.885Z,51.87
2022-08-22T00:36:24.890Z,51.98
2022-08-22T00:39:00.079Z,51.67
2022-08-22T00:41:44.366Z,52.22
2022-08-22T00:44:38.622Z,52.11
2022-08-22T00:47:23.521Z,52.04
2022-08-22T00:50:31.447Z,52.30
2022-08-22T00:53:10.944Z,52.72
2022-08-22T00:55:53.709Z,52.16
2022-08-22T00:58:45.770Z,52.74
2022-08-22T01:01:20.128Z,52.52
2022-08-22T01:04:01.893Z,52.05
2022-08-22T01:06:38.389Z,52.30
2022-08-22T01:09:13.394Z,52.38
2022-08-22T01:11:57.777Z,52.33
2022-08-22T01:14:38.221Z,52.27
2022-08-22T01:17:39.085Z,52.28
2022-08-22T01:20:33.243Z,52.35
2022-08-22T01:23:42.822Z,52.03
2022-08-22T01:27:03.719Z,52.19
2022-08-22T01:30:12.704Z,52.08
2022-08-22T01:33:12.402Z,52.46
2022-08-22T01:36:14.486Z,52.42
2022-08-22T01:39:03.839Z,52.55
2022-08-22T01:41:47.756Z,52.55
2022-08-22T01:44:52.753Z,52.43
2022-08-22T01:47:26.611Z,51.98
2022-08-22T01:49:59.491Z,51.97
2022-08-22T01:52:38.686Z,52.13
2022-08-22T01:55:15.703Z,52.45
2022-08-22T01:57:53.916Z,52.63
2022-08-22T02:00:34.631Z,52.38
2022-08-22T02:03:12.140Z,52.54
2022-08-22T02:05:49.938Z,52.54
2022-08-22T02:08:25.732Z,52.27
2022-08-22T02:11:05.130Z,52.95
2022-08-22T02:13:54.749Z,52.67
2022-08-22T02:16:30.656Z,53.09
2022-08-22T02:19:08.271Z,52.70
2022-08-22T02:21:45.917Z,52.81
2022-08-22T02:24:25.079Z,53.31
2022-08-22T02:27:15.011Z,52.98
2022-08-22T02:29:49.081Z,53.43
2022-08-22T02:32:23.070Z,53.65
2022-08-22T02:35:01.298Z,53.68
2022-08-22T02:37:39.566Z,53.78
2022-08-22T02:40:15.196Z,53.88
2022-08-22T02:42:52.526Z,53.35
2022-08-22T02:45:29.624Z,53.39
2022-08-22T02:48:06.216Z,53.54
2022-08-22T02:50:43.509Z,53.83
2022-08-22T02:53:17.612Z,53.71
2022-08-22T02:55:53.780Z,53.79
2022-08-22T02:58:33.447Z,53.37
2022-08-22T03:01:17.951Z,53.54
2022-08-22T03:03:49.935Z,53.71
2022-08-22T03:06:36.974Z,53.44
2022-08-22T03:09:20.575Z,53.11
2022-08-22T03:11:53.460Z,53.33
2022-08-22T03:14:43.539Z,53.26
2022-08-22T03:17:19.274Z,52.98
2022-08-22T03:19:55.834Z,53.26
2022-08-22T03:22:33.117Z,53.12
2022-08-22T03:25:08.340Z,53.77
2022-08-22T03:27:42.736Z,53.32
2022-08-22T03:30:20.903Z,53.72
2022-08-22T03:32:54.538Z,53.85
2022-08-22T03:35:38.003Z,53.79
2022-08-22T03:38:22.131Z,53.81
2022-08-22T03:41:21.636Z,54.29
2022-08-22T03:44:08.155Z,53.99
2022-08-22T03:47:18.794Z,54.36
2022-08-22T03:50:12.095Z,54.33
2022-08-22T03:53:18.439Z,54.33
2022-08-22T03:56:18.565Z,54.17
2022-08-22T04:02:00.017Z,54.84
2022-08-22T04:04:54.393Z,55.70
2022-08-22T04:07:38.706Z,56.25
2022-08-22T04:10:44.187Z,58.18
2022-08-22T04:13:30.161Z,59.70
2022-08-22T04:16:10.644Z,60.29
2022-08-22T04:18:55.596Z,61.61
2022-08-22T04:21:57.333Z,62.37
2022-08-22T04:24:52.133Z,62.91
2022-08-22T04:27:30.762Z,63.69
2022-08-22T04:30:07.290Z,64.26
2022-08-22T04:32:40.277Z,64.38
2022-08-22T04:35:12.834Z,64.97
2022-08-22T04:37:48.253Z,65.15
2022-08-22T04:40:24.685Z,65.67
2022-08-22T04:43:01.053Z,65.97
2022-08-22T04:45:36.551Z,66.53
2022-08-22T04:48:11.001Z,66.59
2022-08-22T04:50:45.268Z,67.17
2022-08-22T04:53:23.867Z,67.11
2022-08-22T04:56:10.193Z,67.53
2022-08-22T04:58:47.814Z,67.25
2022-08-22T05:01:20.526Z,67.36
2022-08-22T05:03:57.398Z,67.70
2022-08-22T05:06:30.554Z,67.25
2022-08-22T05:09:06.918Z,66.83
2022-08-22T05:11:37.822Z,66.95
2022-08-22T05:14:15.305Z,67.15
2022-08-22T05:16:46.949Z,66.98
2022-08-22T05:19:27.035Z,66.94
2022-08-22T05:21:59.803Z,67.10
2022-08-22T05:24:35.053Z,66.84
2022-08-22T05:27:13.075Z,66.72
2022-08-22T05:29:49.133Z,66.55
2022-08-22T05:32:23.011Z,66.11
2022-08-22T05:34:54.679Z,66.32
2022-08-22T05:37:27.552Z,65.97
2022-08-22T05:40:01.070Z,65.77
2022-08-22T05:42:33.638Z,65.03
2022-08-22T05:45:12.046Z,65.18
2022-08-22T05:47:43.804Z,65.32
2022-08-22T05:50:17.221Z,65.18
2022-08-22T05:53:06.195Z,65.23
2022-08-22T05:55:41.537Z,64.99
2022-08-22T05:58:39.126Z,65.80
2022-08-22T06:01:22.643Z,65.91
2022-08-22T06:04:00.476Z,65.71
2022-08-22T06:06:31.435Z,65.46
2022-08-22T06:09:05.198Z,65.26
2022-08-22T06:11:39.130Z,65.49
2022-08-22T06:14:13.864Z,65.18
2022-08-22T06:16:51.259Z,64.77
2022-08-22T06:19:22.220Z,64.63
2022-08-22T06:21:53.917Z,64.07
2022-08-22T06:24:27.001Z,63.29
2022-08-22T06:27:01.671Z,62.48
2022-08-22T06:29:36.564Z,61.65
2022-08-22T06:32:14.988Z,60.36
2022-08-22T06:34:46.702Z,58.90
2022-08-22T06:37:20.429Z,57.99
2022-08-22T06:39:52.478Z,57.09
2022-08-22T06:42:25.683Z,56.58
2022-08-22T06:45:00.143Z,55.63
2022-08-22T06:47:35.582Z,55.43
2022-08-22T06:50:13.880Z,54.92
2022-08-22T06:52:54.130Z,54.95
2022-08-22T06:55:24.884Z,54.64
2022-08-22T06:57:57.886Z,54.26
2022-08-22T07:00:28.207Z,53.46
2022-08-22T07:03:03.461Z,53.02
2022-08-22T07:05:38.787Z,52.42
2022-08-22T07:08:09.790Z,51.79
2022-08-22T07:10:39.783Z,50.12
2022-08-22T07:13:14.104Z,48.31
2022-08-22T07:15:45.426Z,46.35
2022-08-22T07:18:23.422Z,44.08
2022-08-22T07:20:55.604Z,42.44
2022-08-22T07:23:33.238Z,40.72
2022-08-22T07:26:18.442Z,38.78
2022-08-22T07:28:51.291Z,36.64
2022-08-22T07:31:35.381Z,35.04
2022-08-22T07:34:17.486Z,33.90
2022-08-22T07:36:50.870Z,33.12
2022-08-22T07:39:28.269Z,31.56
2022-08-22T07:42:06.917Z,31.18
2022-08-22T07:44:43.637Z,30.05
2022-08-22T07:47:26.034Z,29.05
2022-08-22T07:50:02.285Z,27.77
2022-08-22T07:52:38.565Z,27.00
2022-08-22T07:55:15.568Z,26.39
2022-08-22T07:57:49.668Z,26.39
2022-08-22T08:00:22.505Z,26.01
2022-08-22T08:02:54.359Z,25.34
2022-08-22T08:05:28.876Z,24.44
2022-08-22T08:07:59.787Z,23.96
2022-08-22T08:10:34.507Z,23.64
2022-08-22T08:13:07.011Z,23.40
2022-08-22T08:15:38.259Z,22.72
2022-08-22T08:18:11.732Z,23.44
2022-08-22T08:20:44.055Z,23.14
2022-08-22T08:23:23.796Z,22.60
2022-08-22T08:25:58.794Z,22.53
2022-08-22T08:28:35.340Z,22.43
2022-08-22T08:31:10.272Z,21.76
2022-08-22T08:33:42.651Z,21.77
2022-08-22T08:36:26.834Z,21.34
2022-08-22T08:39:00.733Z,20.31
2022-08-22T08:41:52.259Z,20.05
2022-08-22T08:44:38.624Z,19.79
2022-08-22T08:47:19.631Z,20.31
2022-08-22T08:50:02.549Z,20.61
2022-08-22T08:53:03.881Z,19.74
2022-08-22T08:55:46.109Z,20.28
2022-08-22T08:58:34.836Z,19.53
2022-08-22T09:01:27.528Z,19.00
2022-08-22T09:04:21.390Z,18.24
2022-08-22T09:07:08.460Z,18.86
2022-08-22T09:09:52.292Z,19.25
2022-08-22T09:15:54.969Z,18.39
2022-08-22T09:18:58.772Z,17.64
2022-08-22T09:21:47.128Z,18.40
2022-08-22T09:24:46.934Z,18.34
2022-08-22T09:27:24.411Z,18.13
2022-08-22T09:30:00.059Z,18.01
2022-08-22T09:32:39.138Z,17.91
2022-08-22T09:35:17.157Z,18.25
2022-08-22T09:37:59.075Z,17.33
2022-08-22T09:40:32.123Z,17.83
2022-08-22T09:43:08.824Z,18.34
2022-08-22T09:45:50.222Z,18.44
2022-08-22T09:48:34.481Z,18.17
2022-08-22T09:51:32.511Z,17.71
2022-08-22T09:54:15.843Z,17.44
2022-08-22T09:56:58.372Z,17.11
2022-08-22T09:59:38.854Z,17.15
2022-08-22T10:02:19.643Z,17.03
2022-08-22T10:04:53.869Z,17.10
2022-08-22T10:07:42.042Z,17.13
2022-08-22T10:10:28.378Z,17.29
2022-08-22T10:13:10.427Z,18.45
2022-08-22T10:15:48.779Z,18.95
2022-08-22T10:18:27.233Z,19.15
2022-08-22T10:21:08.121Z,20.64
2022-08-22T10:23:41.448Z,21.26
2022-08-22T10:26:26.919Z,22.30
2022-08-22T10:28:59.825Z,23.64
2022-08-22T10:31:52.744Z,24.38
2022-08-22T10:34:33.009Z,25.15
2022-08-22T10:37:08.483Z,25.75
2022-08-22T10:39:57.991Z,25.75
2022-08-22T10:42:31.203Z,26.27
2022-08-22T10:45:23.921Z,26.82
2022-08-22T10:48:37.274Z,26.59
2022-08-22T10:51:19.266Z,27.77
2022-08-22T10:53:59.824Z,27.18
2022-08-22T10:56:34.370Z,27.74
2022-08-22T10:59:11.472Z,27.92
2022-08-22T11:01:43.585Z,27.36
2022-08-22T11:04:28.014Z,26.95
2022-08-22T11:07:05.502Z,27.14
2022-08-22T11:09:42.322Z,26.44
2022-08-22T11:12:19.353Z,26.42
2022-08-22T11:15:07.813Z,26.21
2022-08-22T11:18:14.198Z,26.07
2022-08-22T11:20:55.193Z,25.23
2022-08-22T11:23:31.806Z,24.70
2022-08-22T11:26:09.301Z,23.94
2022-08-22T11:29:14.584Z,24.04
2022-08-22T11:31:52.179Z,24.30
2022-08-22T11:34:33.940Z,23.92
2022-08-22T11:37:11.705Z,23.74
2022-08-22T11:39:47.630Z,24.04
2022-08-22T11:42:21.807Z,24.06
2022-08-22T11:44:56.564Z,25.16
2022-08-22T11:47:29.107Z,25.34
2022-08-22T11:50:01.174Z,25.17
2022-08-22T11:52:54.307Z,24.86
2022-08-22T11:55:32.728Z,25.35
2022-08-22T11:58:13.727Z,25.54
2022-08-22T12:00:50.095Z,25.10
2022-08-22T12:03:30.280Z,24.82
2022-08-22T12:06:04.431Z,25.61
2022-08-22T12:09:16.056Z,25.52
2022-08-22T12:11:59.841Z,24.91
2022-08-22T12:14:33.124Z,26.19
2022-08-22T12:17:22.844Z,26.06
2022-08-22T12:20:16.328Z,25.20
2022-08-22T12:23:11.211Z,25.81
2022-08-22T12:25:56.193Z,25.98
2022-08-22T12:28:34.297Z,26.31
2022-08-22T12:31:11.334Z,26.02
2022-08-22T12:33:50.427Z,25.55
2022-08-22T12:36:45.442Z,25.04
2022-08-22T12:39:40.316Z,25.11
2022-08-22T12:42:24.448Z,25.19
2022-08-22T12:45:09.079Z,25.31
2022-08-22T12:47:47.536Z,26.41
2022-08-22T12:50:25.017Z,26.11
2022-08-22T12:53:21.131Z,26.06
2022-08-22T12:56:04.308Z,25.81
2022-08-22T12:58:46.087Z,25.93
2022-08-22T13:01:34.209Z,26.10
2022-08-22T13:04:04.980Z,25.99
2022-08-22T13:06:55.560Z,26.01
2022-08-22T13:09:30.780Z,25.79
2022-08-22T13:12:03.988Z,25.81
2022-08-22T13:14:34.127Z,26.44
2022-08-22T13:17:15.233Z,26.60
2022-08-22T13:20:12.307Z,26.86
2022-08-22T13:22:45.418Z,26.74
2022-08-22T13:25:25.936Z,27.42
2022-08-22T13:27:59.347Z,27.31
2022-08-22T13:30:33.207Z,27.44
2022-08-22T13:33:10.976Z,27.16
2022-08-22T13:35:45.452Z,27.39
2022-08-22T13:38:25.919Z,27.61
2022-08-22T13:40:58.106Z,26.54
2022-08-22T13:43:30.393Z,26.90
2022-08-22T13:46:02.411Z,26.78
2022-08-22T13:48:49.889Z,26.91
2022-08-22T13:51:26.058Z,26.83
2022-08-22T13:54:02.373Z,26.46
2022-08-22T13:56:38.483Z,26.45
2022-08-22T13:59:47.070Z,26.42
2022-08-22T14:02:15.330Z,26.33
2022-08-22T14:04:50.919Z,26.04
2022-08-22T14:07:32.448Z,26.36
2022-08-22T14:10:04.734Z,26.04
2022-08-22T14:12:50.588Z,26.51
2022-08-22T14:15:25.847Z,26.51
2022-08-22T14:18:03.488Z,26.30
2022-08-22T14:20:35.881Z,26.61
2022-08-22T14:23:08.260Z,26.34
2022-08-22T14:25:39.746Z,26.30
2022-08-22T14:28:11.804Z,26.72
2022-08-22T14:30:59.383Z,25.83
2022-08-22T14:33:36.151Z,26.07
2022-08-22T14:36:19.977Z,25.55
2022-08-22T14:38:53.617Z,26.54
2022-08-22T14:41:52.333Z,25.75
2022-08-22T14:44:28.589Z,26.16
2022-08-22T14:47:00.730Z,25.74
2022-08-22T14:49:38.842Z,25.80
2022-08-22T14:52:19.794Z,26.61
2022-08-22T14:54:51.055Z,26.81
2022-08-22T14:57:21.153Z,26.93
2022-08-22T14:59:53.135Z,26.90
2022-08-22T15:02:28.252Z,26.19
2022-08-22T15:05:01.568Z,26.10
2022-08-22T15:07:36.448Z,25.76
2022-08-22T15:10:11.794Z,25.49
2022-08-22T15:12:48.369Z,25.64
2022-08-22T15:15:31.043Z,25.80
2022-08-22T15:18:01.681Z,25.64
2022-08-22T15:20:38.197Z,26.17
2022-08-22T15:23:23.066Z,25.93
2022-08-22T15:26:00.897Z,25.53
2022-08-22T15:28:52.619Z,25.29
2022-08-22T15:31:23.198Z,25.58
2022-08-22T15:33:53.267Z,25.34
2022-08-22T15:36:24.868Z,26.31
2022-08-22T15:38:59.469Z,26.13
2022-08-22T15:41:41.069Z,26.09
2022-08-22T15:44:32.684Z,26.42
2022-08-22T15:47:24.306Z,26.08
2022-08-22T15:49:59.614Z,25.96
2022-08-22T15:52:31.417Z,26.93
2022-08-22T15:55:21.159Z,27.98
2022-08-22T15:57:53.969Z,26.85
2022-08-22T16:00:30.132Z,26.53
2022-08-22T16:03:03.677Z,26.93
2022-08-22T16:05:45.009Z,26.48
2022-08-22T16:08:16.547Z,27.08
2022-08-22T16:10:51.990Z,27.05
2022-08-22T16:13:40.163Z,27.76
2022-08-22T16:16:14.477Z,28.00
2022-08-22T16:19:17.957Z,27.89
2022-08-22T16:22:12.379Z,28.61
2022-08-22T16:25:01.106Z,28.57
2022-08-22T16:27:33.435Z,28.38
2022-08-22T16:30:07.264Z,28.71
2022-08-22T16:32:37.047Z,28.62
2022-08-22T16:35:07.252Z,28.79
2022-08-22T16:37:52.049Z,29.53
2022-08-22T16:40:27.495Z,29.90
2022-08-22T16:43:18.539Z,29.76
2022-08-22T16:45:48.679Z,29.96
2022-08-22T16:48:35.486Z,30.63
2022-08-22T16:51:08.328Z,30.29
2022-08-22T16:54:06.998Z,30.37
2022-08-22T16:56:42.766Z,31.13
2022-08-22T16:59:42.099Z,31.25
2022-08-22T17:02:46.100Z,31.24
2022-08-22T17:05:30.392Z,31.51
2022-08-22T17:08:10.361Z,31.74
2022-08-22T17:10:51.891Z,31.95
2022-08-22T17:13:32.780Z,32.82
2022-08-22T17:16:26.700Z,31.88
2022-08-22T17:19:14.038Z,31.89
2022-08-22T17:21:50.673Z,32.40
2022-08-22T17:24:34.017Z,32.15
2022-08-22T17:27:10.049Z,33.00
2022-08-22T17:29:55.981Z,33.27
2022-08-22T17:32:35.885Z,33.62
2022-08-22T17:35:16.225Z,33.96
2022-08-22T17:37:54.468Z,34.09
2022-08-22T17:40:31.760Z,34.67
2022-08-22T17:43:26.966Z,35.48
2022-08-22T17:46:13.241Z,35.46
2022-08-22T17:48:49.413Z,35.62
2022-08-22T17:51:28.478Z,36.20
2022-08-22T17:54:03.451Z,36.53
2022-08-22T17:56:41.842Z,36.93
2022-08-22T17:59:20.327Z,37.08
2022-08-22T18:01:53.344Z,37.28
2022-08-22T18:04:32.367Z,37.97
2022-08-22T18:07:24.968Z,38.31
2022-08-22T18:09:57.491Z,38.09
2022-08-22T18:12:34.306Z,38.10
2022-08-22T18:15:10.214Z,38.38
2022-08-22T18:17:43.292Z,38.76
2022-08-22T18:20:20.169Z,38.84
2022-08-22T18:22:53.314Z,38.70
2022-08-22T18:25:42.450Z,39.39
2022-08-22T18:28:17.102Z,39.29
2022-08-22T18:30:56.076Z,39.60
2022-08-22T18:33:33.023Z,39.64
2022-08-22T18:36:12.896Z,39.58
2022-08-22T18:38:52.390Z,39.76
2022-08-22T18:41:30.343Z,39.94
2022-08-22T18:44:01.765Z,40.06
2022-08-22T18:46:35.180Z,39.82
2022-08-22T18:49:15.985Z,40.33
2022-08-22T18:52:23.389Z,40.44
2022-08-22T18:55:05.690Z,40.36
2022-08-22T18:57:48.528Z,40.58
2022-08-22T19:00:19.681Z,40.13
2022-08-22T19:03:16.413Z,40.23
2022-08-22T19:06:21.522Z,40.60
2022-08-22T19:09:18.505Z,40.71
2022-08-22T19:11:54.528Z,40.43
2022-08-22T19:14:36.172Z,41.16
2022-08-22T19:17:19.995Z,40.94
2022-08-22T19:20:04.800Z,40.84
2022-08-22T19:22:35.937Z,40.81
2022-08-22T19:25:21.017Z,41.70
2022-08-22T19:28:26.738Z,41.68
2022-08-22T19:31:34.759Z,41.58
2022-08-22T19:34:41.185Z,41.93
2022-08-22T19:37:33.314Z,41.95
2022-08-22T19:40:05.203Z,41.64
2022-08-22T19:42:43.213Z,42.14
2022-08-22T19:45:26.526Z,41.83
2022-08-22T19:48:00.156Z,41.93
2022-08-22T19:50:31.767Z,41.86
2022-08-22T19:53:27.005Z,42.14
2022-08-22T19:56:08.154Z,42.89
2022-08-22T19:58:50.507Z,43.09
2022-08-22T20:01:41.097Z,43.39
2022-08-22T20:04:22.122Z,43.31
2022-08-22T20:06:58.857Z,43.01
2022-08-22T20:09:39.146Z,43.12
2022-08-22T20:12:15.718Z,43.33
2022-08-22T20:14:49.901Z,43.39
2022-08-22T20:17:41.317Z,43.10
2022-08-22T20:20:17.685Z,43.32
2022-08-22T20:22:52.835Z,43.14
2022-08-22T20:25:43.136Z,43.15
2022-08-22T20:28:35.944Z,43.10
2022-08-22T20:31:12.984Z,43.60
2022-08-22T20:33:46.032Z,43.48
2022-08-22T20:36:28.081Z,43.80
2022-08-22T20:39:03.211Z,43.26
2022-08-22T20:41:36.689Z,43.90
2022-08-22T20:44:12.306Z,43.99
2022-08-22T20:46:55.265Z,43.90
2022-08-22T20:49:28.522Z,43.48
2022-08-22T20:51:59.982Z,44.02
2022-08-22T20:54:31.207Z,44.33
2022-08-22T20:57:03.054Z,44.45
2022-08-22T20:59:37.479Z,45.03
2022-08-22T21:02:17.284Z,45.28
2022-08-22T21:04:53.196Z,45.07
2022-08-22T21:07:24.896Z,45.40
2022-08-22T21:10:12.190Z,45.55
2022-08-22T21:12:41.810Z,45.63
2022-08-22T21:15:12.873Z,45.58
2022-08-22T21:17:45.041Z,45.97
2022-08-22T21:20:22.777Z,46.20
2022-08-22T21:22:52.761Z,46.19
2022-08-22T21:25:22.408Z,46.39
2022-08-22T21:27:53.489Z,46.06
2022-08-22T21:30:25.904Z,46.57
2022-08-22T21:32:58.185Z,46.90
2022-08-22T21:35:31.218Z,47.02
2022-08-22T21:38:02.116Z,46.76
2022-08-22T21:40:34.685Z,46.70
2022-08-22T21:43:08.674Z,46.22
2022-08-22T21:45:45.402Z,46.41
2022-08-22T21:48:38.629Z,45.64
2022-08-22T21:51:24.855Z,45.94
2022-08-22T21:54:18.513Z,45.83
2022-08-22T21:56:44.079Z,45.68
2022-08-22T21:59:25.049Z,46.02
2022-08-22T22:01:55.544Z,45.94
2022-08-22T22:04:27.866Z,46.54
2022-08-22T22:06:57.980Z,46.68
2022-08-22T22:09:27.610Z,47.20
2022-08-22T22:11:57.192Z,46.99
2022-08-22T22:14:26.822Z,47.50
2022-08-22T22:16:56.436Z,48.01
2022-08-22T22:19:29.168Z,48.36
2022-08-22T22:21:58.765Z,48.43
2022-08-22T22:24:28.379Z,48.68
2022-08-22T22:26:58.117Z,48.94
2022-08-22T22:29:27.851Z,49.29
2022-08-22T22:31:57.556Z,49.27
2022-08-22T22:34:30.107Z,49.90
2022-08-22T22:36:59.793Z,49.86
2022-08-22T22:39:29.397Z,50.54
2022-08-22T22:41:59.008Z,50.37
2022-08-22T22:44:28.748Z,50.83
2022-08-22T22:46:59.225Z,51.36
2022-08-22T22:49:31.876Z,51.46
2022-08-22T22:52:02.108Z,51.38
2022-08-22T22:54:34.114Z,51.80
2022-08-22T22:57:03.779Z,52.16
2022-08-22T22:59:34.148Z,51.84
2022-08-22T23:02:07.677Z,52.31
2022-08-22T23:04:42.447Z,52.63
2022-08-22T23:07:13.069Z,52.69
2022-08-22T23:09:45.140Z,52.55
2022-08-22T23:12:15.343Z,52.83
2022-08-22T23:14:44.975Z,52.73
2022-08-22T23:17:14.612Z,52.73
2022-08-22T23:19:47.721Z,53.47
2022-08-22T23:22:17.511Z,53.24
2022-08-22T23:24:47.121Z,53.84
2022-08-22T23:27:16.789Z,53.69
2022-08-22T23:29:46.646Z,54.00
2022-08-22T23:32:17.369Z,54.31
2022-08-22T23:34:50.832Z,54.21
2022-08-22T23:37:23.006Z,54.20
2022-08-22T23:39:52.725Z,54.87
2022-08-22T23:42:22.345Z,54.36
2022-08-22T23:44:52.002Z,54.69
2022-08-22T23:47:21.597Z,54.39
2022-08-22T23:49:53.793Z,54.46
2022-08-22T23:52:23.487Z,54.29
2022-08-22T23:54:55.468Z,54.45
2022-08-22T23:57:27.479Z,54.69
2022-08-22T23:59:58.497Z,55.00
